sensor_id;sensor_type;location;lat;lon;timestamp;temperature;humidity
21001;DHT22;10658;50.920;12.238;2023-05-29T00:03:43;10.20;99.90
21001;DHT22;10658;50.920;12.238;2023-05-29T00:07:43;10.10;99.90
21001;DHT22;10658;50.920;12.238;2023-05-29T00:11:44;9.90;99.90
21001;DHT22;10658;50.920;12.238;2023-05-29T00:15:51;10.00;99.90
21001;DHT22;10658;50.920;12.238;2023-05-29T00:19:52;9.90;99.90
21001;DHT22;10658;50.920;12.238;2023-05-29T00:23:52;9.90;99.90
21001;DHT22;10658;50.920;12.238;2023-05-29T00:27:53;9.70;99.90
21001;DHT22;10658;50.920;12.238;2023-05-29T00:31:54;9.50;99.90
21001;DHT22;10658;50.920;12.238;2023-05-29T00:35:56;9.50;99.90
21001;DHT22;10658;50.920;12.238;2023-05-29T00:39:56;9.20;99.90
21001;DHT22;10658;50.920;12.238;2023-05-29T00:43:57;9.30;99.90
21001;DHT22;10658;50.920;12.238;2023-05-29T00:47:58;9.30;99.90
21001;DHT22;10658;50.920;12.238;2023-05-29T00:51:59;9.20;99.90
21001;DHT22;10658;50.920;12.238;2023-05-29T00:56:00;9.40;99.90
21001;DHT22;10658;50.920;12.238;2023-05-29T01:00:04;9.40;99.90
21001;DHT22;10658;50.920;12.238;2023-05-29T01:04:17;9.30;99.90
21001;DHT22;10658;50.920;12.238;2023-05-29T01:08:19;9.30;99.90
21001;DHT22;10658;50.920;12.238;2023-05-29T01:12:57;9.10;99.90
21001;DHT22;10658;50.920;12.238;2023-05-29T01:17:13;9.20;99.90
21001;DHT22;10658;50.920;12.238;2023-05-29T01:29:49;9.00;99.90
21001;DHT22;10658;50.920;12.238;2023-05-29T01:33:55;9.00;99.90
21001;DHT22;10658;50.920;12.238;2023-05-29T01:37:56;8.80;99.90
21001;DHT22;10658;50.920;12.238;2023-05-29T01:41:58;8.50;99.90
21001;DHT22;10658;50.920;12.238;2023-05-29T01:45:59;8.50;99.90
21001;DHT22;10658;50.920;12.238;2023-05-29T01:50:00;8.60;99.90
21001;DHT22;10658;50.920;12.238;2023-05-29T01:54:03;8.70;99.90
21001;DHT22;10658;50.920;12.238;2023-05-29T01:58:04;8.70;99.90
21001;DHT22;10658;50.920;12.238;2023-05-29T02:02:07;8.90;99.90
21001;DHT22;10658;50.920;12.238;2023-05-29T02:06:08;8.60;99.90
21001;DHT22;10658;50.920;12.238;2023-05-29T02:10:09;8.50;99.90
21001;DHT22;10658;50.920;12.238;2023-05-29T02:14:10;8.40;99.90
21001;DHT22;10658;50.920;12.238;2023-05-29T02:18:14;8.20;99.90
21001;DHT22;10658;50.920;12.238;2023-05-29T02:22:17;7.90;99.90
21001;DHT22;10658;50.920;12.238;2023-05-29T02:26:17;7.90;99.90
21001;DHT22;10658;50.920;12.238;2023-05-29T02:30:18;7.90;99.90
21001;DHT22;10658;50.920;12.238;2023-05-29T02:34:19;7.90;99.90
21001;DHT22;10658;50.920;12.238;2023-05-29T02:38:23;8.00;99.90
21001;DHT22;10658;50.920;12.238;2023-05-29T02:42:24;8.10;99.90
21001;DHT22;10658;50.920;12.238;2023-05-29T02:46:24;8.20;99.90
21001;DHT22;10658;50.920;12.238;2023-05-29T02:50:25;8.20;99.90
21001;DHT22;10658;50.920;12.238;2023-05-29T02:54:26;8.10;99.90
21001;DHT22;10658;50.920;12.238;2023-05-29T02:58:27;8.10;99.90
21001;DHT22;10658;50.920;12.238;2023-05-29T03:02:28;8.10;99.90
21001;DHT22;10658;50.920;12.238;2023-05-29T03:06:28;8.10;99.90
21001;DHT22;10658;50.920;12.238;2023-05-29T03:10:29;8.00;99.90
21001;DHT22;10658;50.920;12.238;2023-05-29T03:14:30;7.90;99.90
21001;DHT22;10658;50.920;12.238;2023-05-29T03:18:34;7.90;99.90
21001;DHT22;10658;50.920;12.238;2023-05-29T03:22:36;7.90;99.90
21001;DHT22;10658;50.920;12.238;2023-05-29T03:26:36;7.70;99.90
21001;DHT22;10658;50.920;12.238;2023-05-29T03:30:37;7.80;99.90
21001;DHT22;10658;50.920;12.238;2023-05-29T03:34:38;7.70;99.90
21001;DHT22;10658;50.920;12.238;2023-05-29T03:38:40;7.70;99.90
21001;DHT22;10658;50.920;12.238;2023-05-29T03:42:41;7.70;99.90
21001;DHT22;10658;50.920;12.238;2023-05-29T03:46:42;7.80;99.90
21001;DHT22;10658;50.920;12.238;2023-05-29T03:50:45;7.70;99.90
21001;DHT22;10658;50.920;12.238;2023-05-29T03:54:47;7.80;99.90
21001;DHT22;10658;50.920;12.238;2023-05-29T03:58:48;7.90;99.90
21001;DHT22;10658;50.920;12.238;2023-05-29T04:02:49;8.10;99.90
21001;DHT22;10658;50.920;12.238;2023-05-29T04:06:50;8.30;99.90
21001;DHT22;10658;50.920;12.238;2023-05-29T04:10:52;8.40;99.90
21001;DHT22;10658;50.920;12.238;2023-05-29T04:14:57;8.60;99.90
21001;DHT22;10658;50.920;12.238;2023-05-29T04:18:58;8.80;99.90
21001;DHT22;10658;50.920;12.238;2023-05-29T04:23:01;9.00;99.90
21001;DHT22;10658;50.920;12.238;2023-05-29T04:27:02;9.30;99.90
21001;DHT22;10658;50.920;12.238;2023-05-29T04:31:04;9.50;99.90
21001;DHT22;10658;50.920;12.238;2023-05-29T04:35:07;9.80;99.90
21001;DHT22;10658;50.920;12.238;2023-05-29T04:39:14;10.00;99.90
21001;DHT22;10658;50.920;12.238;2023-05-29T04:43:15;10.40;99.90
21001;DHT22;10658;50.920;12.238;2023-05-29T04:47:32;10.30;99.90
21001;DHT22;10658;50.920;12.238;2023-05-29T04:51:33;10.10;99.90
21001;DHT22;10658;50.920;12.238;2023-05-29T04:55:34;10.10;99.90
21001;DHT22;10658;50.920;12.238;2023-05-29T04:59:36;10.40;99.90
21001;DHT22;10658;50.920;12.238;2023-05-29T05:03:37;10.40;99.90
21001;DHT22;10658;50.920;12.238;2023-05-29T05:07:40;10.60;99.90
21001;DHT22;10658;50.920;12.238;2023-05-29T05:11:41;10.90;99.90
21001;DHT22;10658;50.920;12.238;2023-05-29T05:15:43;11.50;99.90
21001;DHT22;10658;50.920;12.238;2023-05-29T05:19:44;12.30;99.90
21001;DHT22;10658;50.920;12.238;2023-05-29T05:23:46;12.70;99.90
21001;DHT22;10658;50.920;12.238;2023-05-29T05:27:47;12.90;99.90
21001;DHT22;10658;50.920;12.238;2023-05-29T05:31:48;12.90;99.90
21001;DHT22;10658;50.920;12.238;2023-05-29T05:35:49;13.10;99.90
21001;DHT22;10658;50.920;12.238;2023-05-29T05:39:50;13.40;99.90
21001;DHT22;10658;50.920;12.238;2023-05-29T05:43:51;13.60;99.90
21001;DHT22;10658;50.920;12.238;2023-05-29T05:48:00;14.20;99.90
21001;DHT22;10658;50.920;12.238;2023-05-29T05:52:01;14.60;99.90
21001;DHT22;10658;50.920;12.238;2023-05-29T05:56:03;14.90;99.90
21001;DHT22;10658;50.920;12.238;2023-05-29T06:00:05;15.20;99.90
21001;DHT22;10658;50.920;12.238;2023-05-29T06:04:17;15.30;99.90
21001;DHT22;10658;50.920;12.238;2023-05-29T06:08:19;15.60;99.90
21001;DHT22;10658;50.920;12.238;2023-05-29T06:12:21;15.80;99.90
21001;DHT22;10658;50.920;12.238;2023-05-29T06:16:33;16.10;99.90
21001;DHT22;10658;50.920;12.238;2023-05-29T06:20:35;16.10;99.90
21001;DHT22;10658;50.920;12.238;2023-05-29T06:24:36;16.20;99.90
21001;DHT22;10658;50.920;12.238;2023-05-29T06:28:37;16.10;99.90
21001;DHT22;10658;50.920;12.238;2023-05-29T06:32:38;16.10;99.90
21001;DHT22;10658;50.920;12.238;2023-05-29T06:36:41;16.20;99.90
21001;DHT22;10658;50.920;12.238;2023-05-29T06:40:42;16.50;99.90
21001;DHT22;10658;50.920;12.238;2023-05-29T06:44:43;17.20;99.90
21001;DHT22;10658;50.920;12.238;2023-05-29T06:48:44;17.60;99.90
21001;DHT22;10658;50.920;12.238;2023-05-29T06:52:45;17.70;99.90
21001;DHT22;10658;50.920;12.238;2023-05-29T06:56:55;17.30;99.90
21001;DHT22;10658;50.920;12.238;2023-05-29T07:05:55;18.20;99.90
21001;DHT22;10658;50.920;12.238;2023-05-29T07:09:56;18.60;99.90
21001;DHT22;10658;50.920;12.238;2023-05-29T07:13:57;18.70;99.90
21001;DHT22;10658;50.920;12.238;2023-05-29T07:18:00;19.10;99.90
21001;DHT22;10658;50.920;12.238;2023-05-29T07:22:02;19.30;99.90
21001;DHT22;10658;50.920;12.238;2023-05-29T07:26:03;19.70;99.90
21001;DHT22;10658;50.920;12.238;2023-05-29T07:30:05;20.10;99.90
21001;DHT22;10658;50.920;12.238;2023-05-29T07:34:08;20.10;99.90
21001;DHT22;10658;50.920;12.238;2023-05-29T07:38:09;20.10;99.90
21001;DHT22;10658;50.920;12.238;2023-05-29T07:42:10;20.40;99.90
21001;DHT22;10658;50.920;12.238;2023-05-29T07:46:13;20.20;99.90
21001;DHT22;10658;50.920;12.238;2023-05-29T07:50:16;20.60;99.90
21001;DHT22;10658;50.920;12.238;2023-05-29T07:54:17;20.30;99.90
21001;DHT22;10658;50.920;12.238;2023-05-29T07:58:21;20.20;99.90
21001;DHT22;10658;50.920;12.238;2023-05-29T08:02:22;20.60;99.90
21001;DHT22;10658;50.920;12.238;2023-05-29T08:07:02;21.10;99.90
21001;DHT22;10658;50.920;12.238;2023-05-29T08:11:05;21.50;99.90
21001;DHT22;10658;50.920;12.238;2023-05-29T08:15:07;21.50;99.90
21001;DHT22;10658;50.920;12.238;2023-05-29T08:19:10;21.50;99.90
21001;DHT22;10658;50.920;12.238;2023-05-29T08:23:11;21.60;99.90
21001;DHT22;10658;50.920;12.238;2023-05-29T08:27:12;21.80;99.90
21001;DHT22;10658;50.920;12.238;2023-05-29T08:31:13;22.10;99.90
21001;DHT22;10658;50.920;12.238;2023-05-29T08:35:14;22.40;99.90
21001;DHT22;10658;50.920;12.238;2023-05-29T08:39:15;22.70;99.90
21001;DHT22;10658;50.920;12.238;2023-05-29T08:43:22;22.40;99.90
21001;DHT22;10658;50.920;12.238;2023-05-29T08:47:26;22.60;99.90
21001;DHT22;10658;50.920;12.238;2023-05-29T08:51:32;22.40;99.90
21001;DHT22;10658;50.920;12.238;2023-05-29T08:55:35;22.60;99.90
21001;DHT22;10658;50.920;12.238;2023-05-29T08:59:37;23.20;99.90
21001;DHT22;10658;50.920;12.238;2023-05-29T09:03:40;23.10;99.90
21001;DHT22;10658;50.920;12.238;2023-05-29T09:07:42;23.10;99.90
21001;DHT22;10658;50.920;12.238;2023-05-29T09:11:44;23.10;99.90
21001;DHT22;10658;50.920;12.238;2023-05-29T09:16:08;23.50;99.90
21001;DHT22;10658;50.920;12.238;2023-05-29T09:20:23;23.90;99.90
21001;DHT22;10658;50.920;12.238;2023-05-29T09:24:28;24.30;99.90
21001;DHT22;10658;50.920;12.238;2023-05-29T09:28:30;24.30;99.90
21001;DHT22;10658;50.920;12.238;2023-05-29T09:32:32;24.30;99.90
21001;DHT22;10658;50.920;12.238;2023-05-29T09:36:34;24.40;99.90
21001;DHT22;10658;50.920;12.238;2023-05-29T09:40:38;24.30;99.90
21001;DHT22;10658;50.920;12.238;2023-05-29T09:44:40;24.60;99.90
21001;DHT22;10658;50.920;12.238;2023-05-29T09:48:42;24.30;99.90
21001;DHT22;10658;50.920;12.238;2023-05-29T09:52:43;24.60;99.90
21001;DHT22;10658;50.920;12.238;2023-05-29T09:56:45;24.90;99.90
21001;DHT22;10658;50.920;12.238;2023-05-29T10:00:46;24.70;99.90
21001;DHT22;10658;50.920;12.238;2023-05-29T10:04:48;25.00;99.90
21001;DHT22;10658;50.920;12.238;2023-05-29T10:08:51;25.10;99.90
21001;DHT22;10658;50.920;12.238;2023-05-29T10:12:54;24.90;99.90
21001;DHT22;10658;50.920;12.238;2023-05-29T10:16:57;25.10;99.90
21001;DHT22;10658;50.920;12.238;2023-05-29T10:21:01;25.50;99.90
21001;DHT22;10658;50.920;12.238;2023-05-29T10:25:03;25.50;99.90
21001;DHT22;10658;50.920;12.238;2023-05-29T10:29:18;25.50;99.90
21001;DHT22;10658;50.920;12.238;2023-05-29T10:37:50;25.50;99.90
21001;DHT22;10658;50.920;12.238;2023-05-29T10:41:52;25.40;99.90
21001;DHT22;10658;50.920;12.238;2023-05-29T10:45:54;25.80;99.90
21001;DHT22;10658;50.920;12.238;2023-05-29T10:49:59;25.90;99.90
21001;DHT22;10658;50.920;12.238;2023-05-29T10:54:01;26.10;99.90
21001;DHT22;10658;50.920;12.238;2023-05-29T10:58:10;26.10;99.90
21001;DHT22;10658;50.920;12.238;2023-05-29T11:02:18;26.40;99.90
21001;DHT22;10658;50.920;12.238;2023-05-29T11:06:21;26.10;99.90
21001;DHT22;10658;50.920;12.238;2023-05-29T11:14:56;26.30;99.90
21001;DHT22;10658;50.920;12.238;2023-05-29T11:19:08;26.20;99.90
21001;DHT22;10658;50.920;12.238;2023-05-29T11:23:16;26.30;99.90
21001;DHT22;10658;50.920;12.238;2023-05-29T11:27:19;25.80;99.90
21001;DHT22;10658;50.920;12.238;2023-05-29T11:31:20;25.90;99.90
21001;DHT22;10658;50.920;12.238;2023-05-29T11:35:23;26.10;99.90
21001;DHT22;10658;50.920;12.238;2023-05-29T11:39:23;26.30;99.90
21001;DHT22;10658;50.920;12.238;2023-05-29T11:43:25;26.40;99.90
21001;DHT22;10658;50.920;12.238;2023-05-29T11:47:26;26.10;99.90
21001;DHT22;10658;50.920;12.238;2023-05-29T11:51:27;26.20;99.90
21001;DHT22;10658;50.920;12.238;2023-05-29T11:55:28;26.70;99.90
21001;DHT22;10658;50.920;12.238;2023-05-29T11:59:29;26.90;99.90
21001;DHT22;10658;50.920;12.238;2023-05-29T12:03:30;26.30;99.90
21001;DHT22;10658;50.920;12.238;2023-05-29T12:07:31;26.30;99.90
21001;DHT22;10658;50.920;12.238;2023-05-29T12:11:33;26.80;99.90
21001;DHT22;10658;50.920;12.238;2023-05-29T12:15:35;27.40;99.90
21001;DHT22;10658;50.920;12.238;2023-05-29T12:19:36;27.50;99.90
21001;DHT22;10658;50.920;12.238;2023-05-29T12:23:37;27.40;99.90
21001;DHT22;10658;50.920;12.238;2023-05-29T12:27:41;26.70;99.90
21001;DHT22;10658;50.920;12.238;2023-05-29T12:31:42;25.60;99.90
21001;DHT22;10658;50.920;12.238;2023-05-29T12:35:46;26.00;99.90
21001;DHT22;10658;50.920;12.238;2023-05-29T12:40:13;26.50;99.90
21001;DHT22;10658;50.920;12.238;2023-05-29T12:44:18;26.50;99.90
21001;DHT22;10658;50.920;12.238;2023-05-29T12:48:19;26.00;99.90
21001;DHT22;10658;50.920;12.238;2023-05-29T12:52:23;26.00;99.90
21001;DHT22;10658;50.920;12.238;2023-05-29T12:56:25;26.10;99.90
21001;DHT22;10658;50.920;12.238;2023-05-29T13:00:26;26.20;99.90
21001;DHT22;10658;50.920;12.238;2023-05-29T13:04:27;26.10;99.90
21001;DHT22;10658;50.920;12.238;2023-05-29T13:08:28;26.40;99.90
21001;DHT22;10658;50.920;12.238;2023-05-29T13:12:29;26.40;99.90
21001;DHT22;10658;50.920;12.238;2023-05-29T13:16:29;25.80;99.90
21001;DHT22;10658;50.920;12.238;2023-05-29T13:20:30;25.20;99.90
21001;DHT22;10658;50.920;12.238;2023-05-29T13:24:32;24.60;99.90
21001;DHT22;10658;50.920;12.238;2023-05-29T13:28:33;24.30;99.90
21001;DHT22;10658;50.920;12.238;2023-05-29T13:32:34;24.50;99.90
21001;DHT22;10658;50.920;12.238;2023-05-29T13:36:35;25.30;99.90
21001;DHT22;10658;50.920;12.238;2023-05-29T13:40:36;25.80;99.90
21001;DHT22;10658;50.920;12.238;2023-05-29T13:44:37;25.80;99.90
21001;DHT22;10658;50.920;12.238;2023-05-29T13:48:38;25.80;99.90
21001;DHT22;10658;50.920;12.238;2023-05-29T13:52:39;25.80;99.90
21001;DHT22;10658;50.920;12.238;2023-05-29T13:56:40;25.80;99.90
21001;DHT22;10658;50.920;12.238;2023-05-29T14:00:40;25.30;99.90
21001;DHT22;10658;50.920;12.238;2023-05-29T14:04:41;25.10;99.90
21001;DHT22;10658;50.920;12.238;2023-05-29T14:08:43;25.40;99.90
21001;DHT22;10658;50.920;12.238;2023-05-29T14:12:44;25.70;99.90
21001;DHT22;10658;50.920;12.238;2023-05-29T14:16:46;25.30;99.90
21001;DHT22;10658;50.920;12.238;2023-05-29T14:20:47;24.70;99.90
21001;DHT22;10658;50.920;12.238;2023-05-29T14:24:48;24.20;99.90
21001;DHT22;10658;50.920;12.238;2023-05-29T14:28:49;24.10;99.90
21001;DHT22;10658;50.920;12.238;2023-05-29T14:32:50;24.00;99.90
21001;DHT22;10658;50.920;12.238;2023-05-29T14:36:50;23.70;99.90
21001;DHT22;10658;50.920;12.238;2023-05-29T14:40:52;23.30;99.90
21001;DHT22;10658;50.920;12.238;2023-05-29T14:44:52;23.40;99.90
21001;DHT22;10658;50.920;12.238;2023-05-29T14:48:54;23.70;99.90
21001;DHT22;10658;50.920;12.238;2023-05-29T14:52:54;24.10;99.90
21001;DHT22;10658;50.920;12.238;2023-05-29T14:56:55;24.50;99.90
21001;DHT22;10658;50.920;12.238;2023-05-29T15:00:58;24.90;99.90
21001;DHT22;10658;50.920;12.238;2023-05-29T15:04:58;25.30;99.90
21001;DHT22;10658;50.920;12.238;2023-05-29T15:09:00;25.80;99.90
21001;DHT22;10658;50.920;12.238;2023-05-29T15:13:01;26.00;99.90
21001;DHT22;10658;50.920;12.238;2023-05-29T15:17:04;25.80;99.90
21001;DHT22;10658;50.920;12.238;2023-05-29T15:21:05;25.50;99.90
21001;DHT22;10658;50.920;12.238;2023-05-29T15:25:06;25.50;99.90
21001;DHT22;10658;50.920;12.238;2023-05-29T15:29:07;25.20;99.90
21001;DHT22;10658;50.920;12.238;2023-05-29T15:33:08;24.60;99.90
21001;DHT22;10658;50.920;12.238;2023-05-29T15:37:10;24.10;99.90
21001;DHT22;10658;50.920;12.238;2023-05-29T15:41:11;24.40;99.90
21001;DHT22;10658;50.920;12.238;2023-05-29T15:45:12;24.80;99.90
21001;DHT22;10658;50.920;12.238;2023-05-29T15:49:15;25.20;99.90
21001;DHT22;10658;50.920;12.238;2023-05-29T15:53:15;25.20;99.90
21001;DHT22;10658;50.920;12.238;2023-05-29T15:57:16;24.90;99.90
21001;DHT22;10658;50.920;12.238;2023-05-29T16:01:17;24.60;99.90
21001;DHT22;10658;50.920;12.238;2023-05-29T16:05:18;24.70;99.90
21001;DHT22;10658;50.920;12.238;2023-05-29T16:09:18;24.80;99.90
21001;DHT22;10658;50.920;12.238;2023-05-29T16:13:19;24.70;99.90
21001;DHT22;10658;50.920;12.238;2023-05-29T16:17:21;24.50;99.90
21001;DHT22;10658;50.920;12.238;2023-05-29T16:21:21;24.40;99.90
21001;DHT22;10658;50.920;12.238;2023-05-29T16:25:22;24.40;99.90
21001;DHT22;10658;50.920;12.238;2023-05-29T16:29:23;24.40;99.90
21001;DHT22;10658;50.920;12.238;2023-05-29T16:33:24;24.40;99.90
21001;DHT22;10658;50.920;12.238;2023-05-29T16:37:26;24.30;99.90
21001;DHT22;10658;50.920;12.238;2023-05-29T16:41:47;24.30;99.90
21001;DHT22;10658;50.920;12.238;2023-05-29T16:45:49;24.00;99.90
21001;DHT22;10658;50.920;12.238;2023-05-29T16:49:51;23.70;99.90
21001;DHT22;10658;50.920;12.238;2023-05-29T16:53:52;23.50;99.90
21001;DHT22;10658;50.920;12.238;2023-05-29T16:57:54;23.10;99.90
21001;DHT22;10658;50.920;12.238;2023-05-29T17:01:55;22.80;99.90
21001;DHT22;10658;50.920;12.238;2023-05-29T17:05:56;22.30;99.90
21001;DHT22;10658;50.920;12.238;2023-05-29T17:09:57;21.80;99.90
21001;DHT22;10658;50.920;12.238;2023-05-29T17:13:57;21.40;99.90
21001;DHT22;10658;50.920;12.238;2023-05-29T17:17:58;21.10;99.90
21001;DHT22;10658;50.920;12.238;2023-05-29T17:21:59;20.80;99.90
21001;DHT22;10658;50.920;12.238;2023-05-29T17:26:00;20.60;99.90
21001;DHT22;10658;50.920;12.238;2023-05-29T17:30:01;20.40;99.90
21001;DHT22;10658;50.920;12.238;2023-05-29T17:34:02;20.20;99.90
21001;DHT22;10658;50.920;12.238;2023-05-29T17:38:03;20.00;99.90
21001;DHT22;10658;50.920;12.238;2023-05-29T17:42:04;19.80;99.90
21001;DHT22;10658;50.920;12.238;2023-05-29T17:46:05;19.60;99.90
21001;DHT22;10658;50.920;12.238;2023-05-29T17:50:06;19.40;99.90
21001;DHT22;10658;50.920;12.238;2023-05-29T17:54:07;19.30;99.90
21001;DHT22;10658;50.920;12.238;2023-05-29T17:58:11;19.10;99.90
21001;DHT22;10658;50.920;12.238;2023-05-29T18:02:12;18.90;99.90
21001;DHT22;10658;50.920;12.238;2023-05-29T18:06:14;18.70;99.90
21001;DHT22;10658;50.920;12.238;2023-05-29T18:10:15;18.50;99.90
21001;DHT22;10658;50.920;12.238;2023-05-29T18:14:21;18.30;99.90
21001;DHT22;10658;50.920;12.238;2023-05-29T18:18:21;18.10;99.90
21001;DHT22;10658;50.920;12.238;2023-05-29T18:22:22;18.00;99.90
21001;DHT22;10658;50.920;12.238;2023-05-29T18:26:23;17.80;99.90
21001;DHT22;10658;50.920;12.238;2023-05-29T18:30:23;17.70;99.90
21001;DHT22;10658;50.920;12.238;2023-05-29T18:34:24;17.50;99.90
21001;DHT22;10658;50.920;12.238;2023-05-29T18:38:25;17.30;99.90
21001;DHT22;10658;50.920;12.238;2023-05-29T18:42:26;17.20;99.90
21001;DHT22;10658;50.920;12.238;2023-05-29T18:46:27;17.10;99.90
21001;DHT22;10658;50.920;12.238;2023-05-29T18:50:27;16.90;99.90
21001;DHT22;10658;50.920;12.238;2023-05-29T18:54:28;16.80;99.90
21001;DHT22;10658;50.920;12.238;2023-05-29T18:58:30;16.60;99.90
21001;DHT22;10658;50.920;12.238;2023-05-29T19:02:31;16.50;99.90
21001;DHT22;10658;50.920;12.238;2023-05-29T19:06:31;16.20;99.90
21001;DHT22;10658;50.920;12.238;2023-05-29T19:10:33;16.10;99.90
21001;DHT22;10658;50.920;12.238;2023-05-29T19:14:35;16.00;99.90
21001;DHT22;10658;50.920;12.238;2023-05-29T19:18:35;15.90;99.90
21001;DHT22;10658;50.920;12.238;2023-05-29T19:22:36;15.70;99.90
21001;DHT22;10658;50.920;12.238;2023-05-29T19:26:41;15.60;99.90
21001;DHT22;10658;50.920;12.238;2023-05-29T19:30:44;15.40;99.90
21001;DHT22;10658;50.920;12.238;2023-05-29T19:34:46;15.20;99.90
21001;DHT22;10658;50.920;12.238;2023-05-29T19:38:47;14.80;99.90
21001;DHT22;10658;50.920;12.238;2023-05-29T19:42:47;14.60;99.90
21001;DHT22;10658;50.920;12.238;2023-05-29T19:46:48;14.40;99.90
21001;DHT22;10658;50.920;12.238;2023-05-29T19:50:50;14.40;99.90
21001;DHT22;10658;50.920;12.238;2023-05-29T19:54:51;14.50;99.90
21001;DHT22;10658;50.920;12.238;2023-05-29T19:58:53;14.70;99.90
21001;DHT22;10658;50.920;12.238;2023-05-29T20:02:54;14.90;99.90
21001;DHT22;10658;50.920;12.238;2023-05-29T20:06:55;14.90;99.90
21001;DHT22;10658;50.920;12.238;2023-05-29T20:10:56;14.80;99.90
21001;DHT22;10658;50.920;12.238;2023-05-29T20:14:58;14.80;99.90
21001;DHT22;10658;50.920;12.238;2023-05-29T20:19:02;14.60;99.90
21001;DHT22;10658;50.920;12.238;2023-05-29T20:23:06;14.60;99.90
21001;DHT22;10658;50.920;12.238;2023-05-29T20:27:16;14.50;99.90
21001;DHT22;10658;50.920;12.238;2023-05-29T20:31:16;14.30;99.90
21001;DHT22;10658;50.920;12.238;2023-05-29T20:35:17;14.20;99.90
21001;DHT22;10658;50.920;12.238;2023-05-29T20:39:21;14.20;99.90
21001;DHT22;10658;50.920;12.238;2023-05-29T20:43:22;14.10;99.90
21001;DHT22;10658;50.920;12.238;2023-05-29T20:47:23;14.10;99.90
21001;DHT22;10658;50.920;12.238;2023-05-29T20:51:24;14.20;99.90
21001;DHT22;10658;50.920;12.238;2023-05-29T20:55:25;14.10;99.90
21001;DHT22;10658;50.920;12.238;2023-05-29T20:59:26;14.00;99.90
21001;DHT22;10658;50.920;12.238;2023-05-29T21:03:27;13.90;99.90
21001;DHT22;10658;50.920;12.238;2023-05-29T21:07:28;13.90;99.90
21001;DHT22;10658;50.920;12.238;2023-05-29T21:11:37;13.80;99.90
21001;DHT22;10658;50.920;12.238;2023-05-29T21:15:38;13.70;99.90
21001;DHT22;10658;50.920;12.238;2023-05-29T21:19:39;13.60;99.90
21001;DHT22;10658;50.920;12.238;2023-05-29T21:23:39;13.40;99.90
21001;DHT22;10658;50.920;12.238;2023-05-29T21:27:40;13.20;99.90
21001;DHT22;10658;50.920;12.238;2023-05-29T21:31:41;13.10;99.90
21001;DHT22;10658;50.920;12.238;2023-05-29T21:35:42;13.10;99.90
21001;DHT22;10658;50.920;12.238;2023-05-29T21:39:44;13.10;99.90
21001;DHT22;10658;50.920;12.238;2023-05-29T21:43:47;13.00;99.90
21001;DHT22;10658;50.920;12.238;2023-05-29T21:47:48;13.00;99.90
21001;DHT22;10658;50.920;12.238;2023-05-29T21:51:49;13.10;99.90
21001;DHT22;10658;50.920;12.238;2023-05-29T21:55:52;13.20;99.90
21001;DHT22;10658;50.920;12.238;2023-05-29T21:59:53;13.30;99.90
21001;DHT22;10658;50.920;12.238;2023-05-29T22:03:54;13.30;99.90
21001;DHT22;10658;50.920;12.238;2023-05-29T22:07:54;13.30;99.90
21001;DHT22;10658;50.920;12.238;2023-05-29T22:11:56;13.20;99.90
21001;DHT22;10658;50.920;12.238;2023-05-29T22:15:58;13.20;99.90
21001;DHT22;10658;50.920;12.238;2023-05-29T22:19:58;13.40;99.90
21001;DHT22;10658;50.920;12.238;2023-05-29T22:23:59;13.40;99.90
21001;DHT22;10658;50.920;12.238;2023-05-29T22:28:00;13.40;99.90
21001;DHT22;10658;50.920;12.238;2023-05-29T22:32:01;13.40;99.90
21001;DHT22;10658;50.920;12.238;2023-05-29T22:36:02;13.40;99.90
21001;DHT22;10658;50.920;12.238;2023-05-29T22:40:07;13.30;99.90
21001;DHT22;10658;50.920;12.238;2023-05-29T22:44:10;13.20;99.90
21001;DHT22;10658;50.920;12.238;2023-05-29T22:48:11;13.10;99.90
21001;DHT22;10658;50.920;12.238;2023-05-29T22:52:12;13.00;99.90
21001;DHT22;10658;50.920;12.238;2023-05-29T22:56:13;13.10;99.90
21001;DHT22;10658;50.920;12.238;2023-05-29T23:00:14;13.10;99.90
21001;DHT22;10658;50.920;12.238;2023-05-29T23:04:16;13.00;99.90
21001;DHT22;10658;50.920;12.238;2023-05-29T23:08:18;12.90;99.90
21001;DHT22;10658;50.920;12.238;2023-05-29T23:12:19;12.80;99.90
21001;DHT22;10658;50.920;12.238;2023-05-29T23:16:20;12.80;99.90
21001;DHT22;10658;50.920;12.238;2023-05-29T23:20:21;12.70;99.90
21001;DHT22;10658;50.920;12.238;2023-05-29T23:24:22;12.70;99.90
21001;DHT22;10658;50.920;12.238;2023-05-29T23:28:25;12.70;99.90
21001;DHT22;10658;50.920;12.238;2023-05-29T23:32:26;12.60;99.90
21001;DHT22;10658;50.920;12.238;2023-05-29T23:36:26;12.70;99.90
21001;DHT22;10658;50.920;12.238;2023-05-29T23:40:27;12.60;99.90
21001;DHT22;10658;50.920;12.238;2023-05-29T23:44:30;12.50;99.90
21001;DHT22;10658;50.920;12.238;2023-05-29T23:48:31;12.50;99.90
21001;DHT22;10658;50.920;12.238;2023-05-29T23:52:32;12.30;99.90
21001;DHT22;10658;50.920;12.238;2023-05-29T23:56:34;12.10;99.90
